Time;durP1;ratioP1;P1;durP2;ratioP2;P2;SDS_P1;SDS_P2;PMS_P1;PMS_P2;Temp;Humidity;BMP_temperature;BMP_pressure;BME280_temperature;BME280_humidity;BME280_pressure;Samples;Min_cycle;Max_cycle;Signal;HPM_P1;HPM_P2
2021/10/20 00:02:08;;;;;;;11.75;6.22;;;;;;;;;;4944422;28;20053;-65
2021/10/20 00:04:33;;;;;;;12.48;6.28;;;;;;;;;;4947326;28;20023;-65
2021/10/20 00:06:59;;;;;;;11.75;6.13;;;;;;;;;;4948932;28;20039;-65
2021/10/20 00:09:24;;;;;;;9.15;6.15;;;;;;;;;;4945106;28;20027;-65
2021/10/20 00:11:49;;;;;;;9.20;6.10;;;;;;;;;;4949069;28;20098;-64
2021/10/20 00:14:15;;;;;;;12.30;6.07;;;;;;;;;;4941223;28;20107;-64
2021/10/20 00:16:40;;;;;;;8.45;5.93;;;;;;;;;;4943380;28;20154;-64
2021/10/20 00:19:05;;;;;;;10.45;5.70;;;;;;;;;;4948000;28;20375;-65
2021/10/20 00:21:30;;;;;;;9.35;5.63;;;;;;;;;;4936753;28;20620;-65
2021/10/20 00:23:56;;;;;;;10.13;5.78;;;;;;;;;;4944852;28;20027;-64
2021/10/20 00:26:21;;;;;;;9.85;5.80;;;;;;;;;;4944581;28;20039;-64
2021/10/20 00:28:47;;;;;;;8.43;5.63;;;;;;;;;;4944082;29;20016;-66
2021/10/20 00:31:12;;;;;;;12.77;6.68;;;;;;;;;;4937109;28;20489;-66
2021/10/20 00:33:37;;;;;;;10.00;5.68;;;;;;;;;;4936676;28;20130;-64
2021/10/20 00:36:02;;;;;;;9.13;5.80;;;;;;;;;;4937260;28;20043;-64
2021/10/20 00:38:28;;;;;;;9.48;5.70;;;;;;;;;;4946735;28;20027;-64
2021/10/20 00:40:53;;;;;;;9.10;6.10;;;;;;;;;;4946734;28;20051;-64
2021/10/20 00:43:19;;;;;;;9.75;5.72;;;;;;;;;;4944734;28;20525;-64
2021/10/20 00:45:44;;;;;;;8.57;5.05;;;;;;;;;;4941946;28;20032;-64
2021/10/20 00:48:09;;;;;;;14.32;5.75;;;;;;;;;;4945793;28;20086;-64
2021/10/20 00:50:34;;;;;;;12.45;6.13;;;;;;;;;;4942458;28;20042;-64
2021/10/20 00:53:00;;;;;;;8.50;5.50;;;;;;;;;;4947273;28;20061;-64
2021/10/20 00:55:25;;;;;;;8.70;5.35;;;;;;;;;;4947780;28;20047;-66
2021/10/20 00:57:50;;;;;;;10.02;5.65;;;;;;;;;;4946839;29;20035;-65
2021/10/20 01:00:16;;;;;;;12.70;5.88;;;;;;;;;;4940256;28;20063;-66
2021/10/20 01:02:41;;;;;;;8.95;5.15;;;;;;;;;;4946839;29;20114;-65
2021/10/20 01:05:06;;;;;;;9.52;5.40;;;;;;;;;;4940865;28;20022;-66
2021/10/20 01:07:32;;;;;;;11.77;5.38;;;;;;;;;;4936428;28;20344;-66
2021/10/20 01:09:57;;;;;;;11.00;5.30;;;;;;;;;;4938916;29;20385;-64
2021/10/20 01:12:22;;;;;;;8.85;5.05;;;;;;;;;;4941572;28;20363;-64
2021/10/20 01:14:47;;;;;;;10.88;5.78;;;;;;;;;;4926815;29;20057;-66
2021/10/20 01:17:13;;;;;;;11.20;5.78;;;;;;;;;;4928133;28;20091;-66
2021/10/20 01:19:40;;;;;;;8.80;5.30;;;;;;;;;;4919879;28;20043;-65
2021/10/20 01:22:05;;;;;;;9.93;5.15;;;;;;;;;;4924547;28;20668;-65
2021/10/20 01:24:30;;;;;;;11.40;5.05;;;;;;;;;;4917400;29;20098;-66
2021/10/20 01:26:56;;;;;;;6.93;4.85;;;;;;;;;;4927839;28;20044;-66
2021/10/20 01:29:21;;;;;;;7.50;5.07;;;;;;;;;;4922961;28;20035;-65
2021/10/20 01:31:57;;;;;;;9.18;5.35;;;;;;;;;;4920322;28;20177;-65
2021/10/20 01:34:22;;;;;;;8.20;5.38;;;;;;;;;;4911427;29;20440;-65
2021/10/20 01:36:47;;;;;;;10.43;5.35;;;;;;;;;;4920903;28;20578;-65
2021/10/20 01:39:12;;;;;;;8.77;5.28;;;;;;;;;;4928476;29;20023;-65
2021/10/20 01:41:38;;;;;;;10.23;5.47;;;;;;;;;;4927384;28;20051;-65
2021/10/20 01:44:04;;;;;;;11.52;5.50;;;;;;;;;;4923190;28;20027;-65
2021/10/20 01:46:29;;;;;;;13.20;5.40;;;;;;;;;;4927696;28;20040;-65
2021/10/20 01:48:54;;;;;;;8.10;5.35;;;;;;;;;;4915237;29;21908;-65
2021/10/20 01:51:19;;;;;;;11.38;5.15;;;;;;;;;;4924224;28;20038;-65
2021/10/20 01:53:45;;;;;;;8.80;5.35;;;;;;;;;;4928072;28;20027;-65
2021/10/20 01:56:10;;;;;;;8.50;5.38;;;;;;;;;;4923248;28;20040;-65
2021/10/20 01:58:35;;;;;;;8.48;5.55;;;;;;;;;;4924581;28;20038;-66
2021/10/20 02:01:01;;;;;;;9.35;5.40;;;;;;;;;;4919807;28;20139;-66
2021/10/20 02:03:26;;;;;;;10.30;5.50;;;;;;;;;;4921382;29;20055;-66
2021/10/20 02:05:54;;;;;;;9.75;4.80;;;;;;;;;;4925637;28;20494;-65
2021/10/20 02:08:20;;;;;;;9.95;5.47;;;;;;;;;;4923488;29;20483;-66
2021/10/20 02:10:45;;;;;;;9.93;5.63;;;;;;;;;;4928514;28;20032;-66
2021/10/20 02:13:10;;;;;;;11.40;5.38;;;;;;;;;;4930037;29;20140;-66
2021/10/20 02:15:35;;;;;;;7.80;5.43;;;;;;;;;;4945561;28;20130;-66
2021/10/20 02:18:01;;;;;;;10.40;5.88;;;;;;;;;;4945623;28;20023;-66
2021/10/20 02:20:26;;;;;;;7.93;5.60;;;;;;;;;;4946947;28;20402;-66
2021/10/20 02:22:51;;;;;;;13.07;5.30;;;;;;;;;;4947467;28;20038;-66
2021/10/20 02:25:16;;;;;;;10.57;5.15;;;;;;;;;;4945447;28;20130;-66
2021/10/20 02:27:42;;;;;;;10.98;5.22;;;;;;;;;;4946014;28;20044;-66
2021/10/20 02:30:07;;;;;;;9.25;5.30;;;;;;;;;;4945521;28;20121;-65
2021/10/20 02:32:32;;;;;;;11.45;5.10;;;;;;;;;;4936331;29;20038;-65
2021/10/20 02:34:58;;;;;;;11.02;5.00;;;;;;;;;;4934539;28;20019;-66
2021/10/20 02:37:23;;;;;;;8.23;4.88;;;;;;;;;;4941964;28;20043;-65
2021/10/20 02:39:48;;;;;;;7.97;4.60;;;;;;;;;;4941444;29;20585;-65
2021/10/20 02:42:13;;;;;;;6.10;4.03;;;;;;;;;;4946015;28;20127;-65
2021/10/20 02:44:39;;;;;;;9.07;4.78;;;;;;;;;;4934925;28;20023;-65
2021/10/20 02:47:04;;;;;;;10.30;4.40;;;;;;;;;;4939062;28;20048;-65
2021/10/20 02:49:29;;;;;;;7.45;4.30;;;;;;;;;;4940102;29;20034;-65
2021/10/20 02:51:54;;;;;;;8.30;5.10;;;;;;;;;;4939174;28;20043;-65
2021/10/20 02:54:20;;;;;;;9.85;4.80;;;;;;;;;;4946078;28;21738;-65
2021/10/20 02:56:45;;;;;;;9.10;4.55;;;;;;;;;;4947630;28;20047;-65
2021/10/20 02:59:10;;;;;;;7.50;4.53;;;;;;;;;;4938286;28;20031;-65
2021/10/20 03:01:36;;;;;;;8.45;4.80;;;;;;;;;;4942214;28;20067;-65
2021/10/20 03:04:01;;;;;;;7.35;4.63;;;;;;;;;;4944648;28;20639;-65
2021/10/20 03:06:26;;;;;;;8.05;4.70;;;;;;;;;;4949672;28;20508;-65
2021/10/20 03:08:51;;;;;;;9.57;4.65;;;;;;;;;;4949853;28;20038;-65
2021/10/20 03:11:17;;;;;;;8.07;4.50;;;;;;;;;;4941059;28;20066;-65
2021/10/20 03:13:42;;;;;;;7.82;4.85;;;;;;;;;;4945499;28;20043;-65
2021/10/20 03:16:07;;;;;;;12.10;5.18;;;;;;;;;;4962657;28;20506;-65
2021/10/20 03:18:33;;;;;;;7.50;4.68;;;;;;;;;;4944891;28;20023;-65
2021/10/20 03:20:58;;;;;;;7.32;4.50;;;;;;;;;;4954993;28;20043;-65
2021/10/20 03:23:24;;;;;;;8.35;4.20;;;;;;;;;;4947558;28;20471;-65
2021/10/20 03:25:49;;;;;;;7.53;4.20;;;;;;;;;;4938922;28;20027;-65
2021/10/20 03:28:14;;;;;;;8.35;4.40;;;;;;;;;;4949698;28;20045;-65
2021/10/20 03:30:39;;;;;;;8.55;4.10;;;;;;;;;;4948368;28;20039;-65
2021/10/20 03:33:04;;;;;;;9.95;4.93;;;;;;;;;;4944531;28;20696;-65
2021/10/20 03:35:30;;;;;;;9.20;4.50;;;;;;;;;;4944687;28;20597;-65
2021/10/20 03:37:55;;;;;;;6.70;4.38;;;;;;;;;;4959802;28;20078;-65
2021/10/20 03:40:20;;;;;;;8.27;4.70;;;;;;;;;;4948067;28;20719;-65
2021/10/20 03:42:45;;;;;;;6.13;4.47;;;;;;;;;;4951056;28;20316;-65
2021/10/20 03:45:11;;;;;;;7.20;4.35;;;;;;;;;;4949245;28;20564;-64
2021/10/20 03:47:36;;;;;;;11.50;4.20;;;;;;;;;;4948356;28;20590;-64
2021/10/20 03:50:02;;;;;;;6.93;4.35;;;;;;;;;;4948254;28;20480;-65
2021/10/20 03:52:27;;;;;;;7.43;4.18;;;;;;;;;;4942315;28;20019;-65
2021/10/20 03:54:52;;;;;;;8.52;4.57;;;;;;;;;;4942955;29;20484;-65
2021/10/20 03:57:18;;;;;;;8.43;4.03;;;;;;;;;;4943638;28;20497;-65
2021/10/20 03:59:44;;;;;;;6.10;4.22;;;;;;;;;;4941186;29;20405;-65
2021/10/20 04:02:09;;;;;;;9.93;4.60;;;;;;;;;;4947742;28;20035;-65
2021/10/20 04:04:34;;;;;;;7.30;4.70;;;;;;;;;;4941284;28;20027;-65
2021/10/20 04:07:00;;;;;;;6.28;4.32;;;;;;;;;;4944872;28;20062;-65
2021/10/20 04:09:25;;;;;;;8.68;4.32;;;;;;;;;;4945760;28;20034;-65
2021/10/20 04:11:50;;;;;;;10.57;4.25;;;;;;;;;;4942120;28;20068;-65
2021/10/20 04:14:16;;;;;;;10.80;4.57;;;;;;;;;;4944767;28;20505;-65
2021/10/20 04:16:41;;;;;;;7.70;4.38;;;;;;;;;;4945986;28;20406;-65
2021/10/20 04:19:06;;;;;;;7.13;4.25;;;;;;;;;;4935109;28;20083;-64
2021/10/20 04:21:31;;;;;;;8.63;4.70;;;;;;;;;;4939253;28;20103;-64
2021/10/20 04:23:56;;;;;;;8.32;5.05;;;;;;;;;;4946289;28;20164;-65
2021/10/20 04:26:22;;;;;;;6.50;4.50;;;;;;;;;;4948007;28;20486;-64
2021/10/20 04:28:48;;;;;;;9.25;4.78;;;;;;;;;;4942716;28;20043;-64
2021/10/20 04:31:13;;;;;;;8.23;4.30;;;;;;;;;;4943063;28;20058;-64
2021/10/20 04:33:39;;;;;;;7.82;4.53;;;;;;;;;;4947999;29;20085;-64
2021/10/20 04:36:04;;;;;;;7.00;4.43;;;;;;;;;;4943100;28;20127;-64
2021/10/20 04:38:29;;;;;;;10.48;5.15;;;;;;;;;;4941316;29;20132;-65
2021/10/20 04:40:54;;;;;;;10.73;4.95;;;;;;;;;;4948770;28;20406;-64
2021/10/20 04:43:20;;;;;;;6.55;4.30;;;;;;;;;;4952072;28;20030;-64
2021/10/20 04:45:45;;;;;;;10.30;4.28;;;;;;;;;;4935840;28;20039;-65
2021/10/20 04:48:10;;;;;;;9.45;5.03;;;;;;;;;;4941502;28;20130;-65
2021/10/20 04:50:36;;;;;;;12.10;5.05;;;;;;;;;;4947780;28;20772;-65
2021/10/20 04:53:03;;;;;;;7.82;4.70;;;;;;;;;;4941511;29;20489;-66
2021/10/20 04:55:28;;;;;;;8.45;4.55;;;;;;;;;;4946031;28;20039;-65
2021/10/20 04:57:53;;;;;;;6.72;4.72;;;;;;;;;;4943223;29;20034;-65
2021/10/20 05:00:19;;;;;;;8.20;4.95;;;;;;;;;;4956304;28;20031;-65
2021/10/20 05:02:45;;;;;;;8.48;4.85;;;;;;;;;;4937266;29;20114;-66
2021/10/20 05:05:11;;;;;;;7.25;4.95;;;;;;;;;;4947281;28;20109;-64
2021/10/20 05:07:46;;;;;;;9.65;4.82;;;;;;;;;;4936384;28;20051;-67
2021/10/20 05:10:11;;;;;;;8.48;4.90;;;;;;;;;;4943965;28;20031;-66
2021/10/20 05:12:36;;;;;;;8.57;5.25;;;;;;;;;;4947948;28;20042;-66
2021/10/20 05:15:03;;;;;;;10.57;4.82;;;;;;;;;;4947216;28;20184;-66
2021/10/20 05:17:28;;;;;;;8.60;5.25;;;;;;;;;;4945749;28;20059;-66
2021/10/20 05:19:54;;;;;;;9.02;4.95;;;;;;;;;;4941161;28;20110;-65
2021/10/20 05:22:19;;;;;;;8.00;5.10;;;;;;;;;;4943136;28;20485;-65
2021/10/20 05:24:44;;;;;;;13.00;4.88;;;;;;;;;;4946395;28;20493;-65
2021/10/20 05:27:09;;;;;;;8.70;4.63;;;;;;;;;;4949315;28;20142;-67
2021/10/20 05:29:35;;;;;;;8.23;5.00;;;;;;;;;;4941754;28;20031;-65
2021/10/20 05:32:00;;;;;;;8.10;5.50;;;;;;;;;;4935750;28;20059;-66
2021/10/20 05:34:26;;;;;;;11.07;4.95;;;;;;;;;;4946557;28;20102;-65
2021/10/20 05:36:51;;;;;;;8.88;5.85;;;;;;;;;;4946676;28;20505;-66
2021/10/20 05:39:16;;;;;;;8.38;5.47;;;;;;;;;;4947535;28;20141;-65
2021/10/20 05:41:41;;;;;;;9.38;5.35;;;;;;;;;;4934159;28;20098;-65
2021/10/20 05:44:07;;;;;;;12.27;4.88;;;;;;;;;;4940908;29;20073;-65
2021/10/20 05:46:32;;;;;;;6.97;5.07;;;;;;;;;;4943199;28;20043;-65
2021/10/20 05:48:57;;;;;;;10.48;5.28;;;;;;;;;;4945907;28;20031;-65
2021/10/20 05:51:23;;;;;;;8.63;5.57;;;;;;;;;;4947543;28;20039;-65
2021/10/20 05:53:48;;;;;;;9.68;5.68;;;;;;;;;;4944750;28;20110;-65
2021/10/20 05:56:13;;;;;;;8.77;4.78;;;;;;;;;;4942176;28;20134;-64
2021/10/20 05:58:38;;;;;;;9.85;5.32;;;;;;;;;;4939022;28;20146;-65
2021/10/20 06:01:04;;;;;;;9.98;5.03;;;;;;;;;;4947396;28;20132;-65
2021/10/20 06:03:29;;;;;;;8.10;5.50;;;;;;;;;;4946870;28;20082;-65
2021/10/20 06:05:54;;;;;;;7.57;5.07;;;;;;;;;;4945979;28;20659;-64
2021/10/20 06:08:19;;;;;;;7.93;5.28;;;;;;;;;;4937564;28;20153;-65
2021/10/20 06:10:45;;;;;;;10.23;5.72;;;;;;;;;;4937792;28;20032;-64
2021/10/20 06:13:10;;;;;;;9.82;5.35;;;;;;;;;;4943228;28;20165;-67
2021/10/20 06:15:35;;;;;;;8.63;5.60;;;;;;;;;;4944111;28;20040;-67
2021/10/20 06:18:02;;;;;;;9.82;5.18;;;;;;;;;;4943490;28;20043;-67
2021/10/20 06:20:27;;;;;;;9.10;5.20;;;;;;;;;;4946489;28;20043;-66
2021/10/20 06:22:52;;;;;;;7.55;5.55;;;;;;;;;;4945715;28;20454;-66
2021/10/20 06:25:17;;;;;;;11.30;5.55;;;;;;;;;;4946004;28;20052;-66
2021/10/20 06:27:42;;;;;;;6.93;4.63;;;;;;;;;;4941962;28;20572;-66
2021/10/20 06:30:08;;;;;;;8.80;5.35;;;;;;;;;;4952194;28;20538;-66
2021/10/20 06:32:33;;;;;;;10.02;5.10;;;;;;;;;;4950354;28;20023;-65
2021/10/20 06:34:59;;;;;;;8.32;5.43;;;;;;;;;;4950356;28;20031;-66
2021/10/20 06:37:24;;;;;;;10.70;5.90;;;;;;;;;;4949291;28;20109;-66
2021/10/20 06:39:49;;;;;;;8.40;5.40;;;;;;;;;;4949264;28;20399;-66
2021/10/20 06:42:15;;;;;;;9.57;5.70;;;;;;;;;;4945470;28;20047;-68
2021/10/20 06:44:40;;;;;;;10.52;5.72;;;;;;;;;;4945747;29;20106;-67
2021/10/20 06:47:08;;;;;;;9.38;6.05;;;;;;;;;;4950078;28;20406;-65
2021/10/20 06:49:34;;;;;;;9.18;5.30;;;;;;;;;;4945767;28;20020;-67
2021/10/20 06:51:59;;;;;;;9.23;6.10;;;;;;;;;;4944065;28;20040;-66
2021/10/20 06:54:24;;;;;;;10.88;5.40;;;;;;;;;;4947199;29;20065;-65
2021/10/20 06:56:51;;;;;;;9.98;5.75;;;;;;;;;;4944386;28;20183;-66
2021/10/20 06:59:16;;;;;;;7.97;5.18;;;;;;;;;;4944461;28;20034;-67
2021/10/20 07:01:41;;;;;;;8.38;5.32;;;;;;;;;;4945993;28;20048;-67
2021/10/20 07:04:07;;;;;;;8.45;5.82;;;;;;;;;;4948187;28;20051;-65
2021/10/20 07:06:32;;;;;;;9.45;5.57;;;;;;;;;;4950035;28;20036;-65
2021/10/20 07:08:57;;;;;;;9.10;5.15;;;;;;;;;;4943347;28;20443;-65
2021/10/20 07:11:23;;;;;;;7.07;5.25;;;;;;;;;;4949682;28;20027;-65
2021/10/20 07:13:48;;;;;;;10.10;5.85;;;;;;;;;;4934989;28;20047;-65
2021/10/20 07:16:13;;;;;;;8.77;5.60;;;;;;;;;;4940908;28;20028;-67
2021/10/20 07:18:39;;;;;;;15.05;5.80;;;;;;;;;;4949278;28;20047;-67
2021/10/20 07:21:04;;;;;;;9.93;5.50;;;;;;;;;;4948829;28;20494;-65
2021/10/20 07:23:29;;;;;;;9.73;5.80;;;;;;;;;;4946278;28;20030;-65
2021/10/20 07:25:55;;;;;;;9.90;5.80;;;;;;;;;;4940418;28;20039;-65
2021/10/20 07:28:20;;;;;;;10.68;5.65;;;;;;;;;;4945721;28;20118;-64
2021/10/20 07:30:45;;;;;;;8.23;5.70;;;;;;;;;;4944047;28;20047;-67
2021/10/20 07:33:10;;;;;;;10.35;5.55;;;;;;;;;;4946182;28;20393;-67
2021/10/20 07:35:35;;;;;;;11.43;5.63;;;;;;;;;;4936662;28;20077;-67
2021/10/20 07:38:01;;;;;;;9.18;5.35;;;;;;;;;;4944357;28;20055;-65
2021/10/20 07:40:26;;;;;;;8.57;5.10;;;;;;;;;;4939726;28;20070;-64
2021/10/20 07:42:51;;;;;;;8.52;5.72;;;;;;;;;;4946415;28;20063;-65
2021/10/20 07:45:18;;;;;;;10.00;6.00;;;;;;;;;;4945687;28;20457;-65
2021/10/20 07:47:44;;;;;;;8.98;6.05;;;;;;;;;;4949345;28;20023;-64
2021/10/20 07:50:09;;;;;;;10.02;5.60;;;;;;;;;;4942132;28;20027;-65
2021/10/20 07:52:34;;;;;;;10.13;5.80;;;;;;;;;;4944418;28;20355;-65
2021/10/20 07:55:00;;;;;;;8.07;5.55;;;;;;;;;;4949416;28;20106;-66
2021/10/20 07:57:28;;;;;;;10.35;5.65;;;;;;;;;;4949546;28;20518;-66
2021/10/20 07:59:53;;;;;;;8.45;5.72;;;;;;;;;;4943803;28;20327;-65
2021/10/20 08:02:18;;;;;;;9.68;5.20;;;;;;;;;;4948603;28;20570;-65
2021/10/20 08:04:44;;;;;;;10.10;5.80;;;;;;;;;;4948924;28;20482;-65
2021/10/20 08:07:09;;;;;;;9.70;5.93;;;;;;;;;;4945355;28;20039;-65
2021/10/20 08:09:34;;;;;;;8.88;5.13;;;;;;;;;;4946979;28;20486;-65
2021/10/20 08:11:59;;;;;;;8.45;6.03;;;;;;;;;;4948805;28;20498;-65
2021/10/20 08:14:24;;;;;;;9.80;5.65;;;;;;;;;;4943915;28;20385;-65
2021/10/20 08:16:51;;;;;;;10.45;5.93;;;;;;;;;;4937967;29;20520;-65
2021/10/20 08:19:16;;;;;;;11.05;6.00;;;;;;;;;;4940048;29;20024;-67
2021/10/20 08:21:41;;;;;;;12.85;5.93;;;;;;;;;;4946906;28;20110;-67
2021/10/20 08:24:07;;;;;;;8.80;5.35;;;;;;;;;;4944383;28;20386;-65
2021/10/20 08:26:32;;;;;;;11.65;6.07;;;;;;;;;;4947044;28;20498;-65
2021/10/20 08:28:57;;;;;;;10.48;6.05;;;;;;;;;;4944205;28;20082;-65
2021/10/20 08:31:22;;;;;;;8.30;5.72;;;;;;;;;;4944146;28;20537;-65
2021/10/20 08:33:48;;;;;;;10.43;5.90;;;;;;;;;;4961507;28;20035;-67
2021/10/20 08:36:13;;;;;;;8.25;5.80;;;;;;;;;;4944120;28;20113;-65
2021/10/20 08:38:38;;;;;;;9.30;5.72;;;;;;;;;;4948635;28;20046;-67
2021/10/20 08:41:03;;;;;;;8.90;6.00;;;;;;;;;;4944385;28;20075;-64
2021/10/20 08:43:29;;;;;;;8.02;5.95;;;;;;;;;;4944547;29;20027;-67
2021/10/20 08:45:54;;;;;;;9.88;6.07;;;;;;;;;;4939049;28;20070;-66
2021/10/20 08:48:21;;;;;;;8.88;6.10;;;;;;;;;;4938853;28;20019;-66
2021/10/20 08:50:50;;;;;;;8.63;5.68;;;;;;;;;;4947758;28;20401;-66
2021/10/20 08:53:16;;;;;;;9.13;5.88;;;;;;;;;;4942789;29;20464;-66
2021/10/20 08:55:41;;;;;;;11.63;6.30;;;;;;;;;;4940741;28;20045;-66
2021/10/20 08:58:06;;;;;;;15.10;6.22;;;;;;;;;;4947715;28;20027;-66
2021/10/20 09:00:32;;;;;;;9.38;5.93;;;;;;;;;;4935875;28;20044;-66
2021/10/20 09:02:57;;;;;;;9.73;5.88;;;;;;;;;;4944328;28;20030;-66
2021/10/20 09:05:23;;;;;;;9.27;6.10;;;;;;;;;;4950540;28;20031;-66
2021/10/20 09:07:49;;;;;;;15.45;6.30;;;;;;;;;;4942413;28;20026;-65
2021/10/20 09:10:14;;;;;;;7.70;5.57;;;;;;;;;;4947870;28;20015;-66
2021/10/20 09:12:42;;;;;;;10.50;5.95;;;;;;;;;;4944776;28;20027;-65
2021/10/20 09:15:09;;;;;;;10.00;6.47;;;;;;;;;;4943876;28;20590;-65
2021/10/20 09:17:41;;;;;;;12.70;6.82;;;;;;;;;;4956567;28;20385;-65
2021/10/20 09:20:20;;;;;;;8.02;6.07;;;;;;;;;;4946771;28;20027;-65
2021/10/20 09:22:56;;;;;;;8.23;6.07;;;;;;;;;;4947102;29;20031;-66
2021/10/20 09:25:22;;;;;;;7.95;6.10;;;;;;;;;;4947691;28;20472;-66
2021/10/20 09:27:48;;;;;;;11.50;5.88;;;;;;;;;;4956296;28;20027;-66
2021/10/20 09:30:13;;;;;;;11.93;6.72;;;;;;;;;;4941624;28;20023;-65
2021/10/20 09:32:39;;;;;;;9.43;6.38;;;;;;;;;;4942559;28;20026;-65
2021/10/20 09:35:04;;;;;;;10.52;6.10;;;;;;;;;;4948860;28;20034;-66
2021/10/20 09:37:30;;;;;;;10.45;6.35;;;;;;;;;;4947205;28;20027;-65
2021/10/20 09:40:03;;;;;;;11.38;6.20;;;;;;;;;;4940465;28;20035;-65
2021/10/20 09:42:28;;;;;;;13.40;6.57;;;;;;;;;;4941425;28;20155;-66
2021/10/20 09:44:54;;;;;;;11.15;6.43;;;;;;;;;;4941574;29;20576;-67
2021/10/20 09:47:19;;;;;;;12.50;6.38;;;;;;;;;;4937358;28;20796;-65
2021/10/20 09:49:48;;;;;;;10.98;6.90;;;;;;;;;;4940885;28;20042;-65
2021/10/20 09:52:14;;;;;;;9.57;6.50;;;;;;;;;;4947166;28;20035;-65
2021/10/20 09:54:41;;;;;;;10.98;5.97;;;;;;;;;;4942877;28;20382;-65
2021/10/20 09:57:06;;;;;;;9.75;6.60;;;;;;;;;;4945157;28;20390;-65
2021/10/20 09:59:31;;;;;;;11.32;6.45;;;;;;;;;;4934049;28;20498;-65
2021/10/20 10:01:56;;;;;;;8.98;6.65;;;;;;;;;;4946499;28;20573;-65
2021/10/20 10:04:22;;;;;;;9.30;5.63;;;;;;;;;;4943852;28;20359;-66
2021/10/20 10:06:48;;;;;;;9.77;6.50;;;;;;;;;;4948867;28;20386;-67
2021/10/20 10:09:13;;;;;;;7.45;5.63;;;;;;;;;;4943458;29;20058;-65
2021/10/20 10:11:54;;;;;;;10.75;6.32;;;;;;;;;;4950998;28;20083;-65
2021/10/20 10:14:21;;;;;;;9.88;5.57;;;;;;;;;;4943655;28;20441;-65
2021/10/20 10:16:47;;;;;;;9.93;6.30;;;;;;;;;;4946971;28;20035;-65
2021/10/20 10:19:12;;;;;;;8.40;6.28;;;;;;;;;;4946016;28;20368;-65
2021/10/20 10:21:42;;;;;;;7.90;6.25;;;;;;;;;;4941849;28;20047;-65
2021/10/20 10:24:16;;;;;;;8.52;5.88;;;;;;;;;;4950773;28;20027;-66
2021/10/20 10:26:56;;;;;;;10.32;6.65;;;;;;;;;;4945759;28;20557;-66
2021/10/20 10:29:22;;;;;;;8.95;6.25;;;;;;;;;;4951134;28;20027;-67
2021/10/20 10:31:47;;;;;;;10.40;6.78;;;;;;;;;;4944841;28;20585;-67
2021/10/20 10:34:32;;;;;;;9.32;6.38;;;;;;;;;;4949342;28;20034;-66
2021/10/20 10:36:59;;;;;;;8.70;5.93;;;;;;;;;;4950406;28;20379;-64
2021/10/20 10:39:24;;;;;;;9.40;6.40;;;;;;;;;;4945437;28;20102;-66
2021/10/20 10:41:50;;;;;;;11.82;6.75;;;;;;;;;;4948437;28;20159;-66
2021/10/20 10:44:16;;;;;;;11.82;6.47;;;;;;;;;;4950485;28;20035;-66
2021/10/20 10:47:02;;;;;;;11.27;5.68;;;;;;;;;;4948781;28;20142;-66
2021/10/20 10:49:34;;;;;;;11.32;6.40;;;;;;;;;;4946889;28;20454;-66
2021/10/20 10:52:02;;;;;;;8.13;5.53;;;;;;;;;;4950103;28;20059;-67
2021/10/20 10:54:34;;;;;;;10.05;6.13;;;;;;;;;;4946884;28;20028;-67
2021/10/20 10:57:12;;;;;;;9.68;6.03;;;;;;;;;;4943957;28;20506;-64
2021/10/20 10:59:37;;;;;;;12.23;6.43;;;;;;;;;;4944024;28;20031;-66
2021/10/20 11:02:03;;;;;;;11.90;6.10;;;;;;;;;;4940809;28;20099;-64
2021/10/20 11:04:34;;;;;;;13.13;6.20;;;;;;;;;;4944952;28;20386;-65
2021/10/20 11:07:00;;;;;;;9.52;6.30;;;;;;;;;;4942579;28;20098;-66
2021/10/20 11:09:32;;;;;;;8.57;6.50;;;;;;;;;;4950182;28;20444;-65
2021/10/20 11:11:57;;;;;;;8.93;6.03;;;;;;;;;;4943207;28;20043;-66
2021/10/20 11:14:23;;;;;;;9.38;6.50;;;;;;;;;;4948530;28;20055;-66
2021/10/20 11:16:49;;;;;;;8.02;5.88;;;;;;;;;;4949882;28;20059;-66
2021/10/20 11:19:19;;;;;;;8.48;6.18;;;;;;;;;;4940109;29;20548;-66
2021/10/20 11:21:44;;;;;;;8.98;5.68;;;;;;;;;;4937924;28;20413;-66
2021/10/20 11:24:10;;;;;;;13.30;6.95;;;;;;;;;;4942158;29;20027;-66
2021/10/20 11:26:36;;;;;;;8.32;6.55;;;;;;;;;;4947657;28;20254;-66
2021/10/20 11:29:05;;;;;;;12.40;7.10;;;;;;;;;;4948296;29;20023;-66
2021/10/20 11:31:30;;;;;;;12.27;7.38;;;;;;;;;;4949030;28;20918;-66
2021/10/20 11:33:55;;;;;;;11.23;6.80;;;;;;;;;;4941053;28;20055;-66
2021/10/20 11:36:20;;;;;;;10.65;6.97;;;;;;;;;;4943167;28;20134;-66
2021/10/20 11:38:47;;;;;;;10.23;7.05;;;;;;;;;;4947918;28;20025;-67
2021/10/20 11:41:16;;;;;;;10.77;7.15;;;;;;;;;;4940393;28;20455;-65
2021/10/20 11:43:45;;;;;;;11.20;6.72;;;;;;;;;;4940977;29;20114;-67
2021/10/20 11:46:10;;;;;;;10.00;6.90;;;;;;;;;;4946952;28;20035;-67
2021/10/20 11:48:36;;;;;;;11.50;6.90;;;;;;;;;;4936720;29;20030;-67
2021/10/20 11:51:02;;;;;;;9.05;6.97;;;;;;;;;;4932677;28;20105;-67
2021/10/20 11:53:27;;;;;;;10.82;7.13;;;;;;;;;;4947788;28;20034;-67
2021/10/20 11:55:53;;;;;;;8.50;6.28;;;;;;;;;;4942573;28;20047;-67
2021/10/20 11:58:19;;;;;;;11.40;6.57;;;;;;;;;;4944089;29;20027;-67
2021/10/20 12:00:48;;;;;;;7.60;5.57;;;;;;;;;;4948635;28;20049;-66
2021/10/20 12:03:13;;;;;;;10.90;6.45;;;;;;;;;;4943384;28;20543;-66
2021/10/20 12:05:38;;;;;;;10.18;6.22;;;;;;;;;;4955443;28;20055;-66
2021/10/20 12:08:04;;;;;;;8.07;6.22;;;;;;;;;;4945636;28;20098;-66
2021/10/20 12:10:29;;;;;;;11.35;6.72;;;;;;;;;;4941339;29;20055;-66
2021/10/20 12:12:54;;;;;;;13.95;6.78;;;;;;;;;;4961651;28;20038;-66
2021/10/20 12:15:20;;;;;;;9.00;6.40;;;;;;;;;;4929940;28;20124;-67
2021/10/20 12:17:46;;;;;;;12.27;6.28;;;;;;;;;;4947530;28;20723;-66
2021/10/20 12:20:12;;;;;;;10.93;6.57;;;;;;;;;;4943332;28;20415;-66
2021/10/20 12:22:40;;;;;;;8.38;5.78;;;;;;;;;;4943364;28;20439;-66
2021/10/20 12:25:06;;;;;;;11.70;6.55;;;;;;;;;;4938850;28;20463;-66
2021/10/20 12:27:31;;;;;;;11.88;6.75;;;;;;;;;;4948978;28;20083;-66
2021/10/20 12:29:59;;;;;;;8.93;6.40;;;;;;;;;;4943570;28;20036;-66
2021/10/20 12:32:29;;;;;;;8.98;6.55;;;;;;;;;;4943309;28;20035;-66
2021/10/20 12:34:57;;;;;;;10.38;6.43;;;;;;;;;;4935352;29;20035;-66
2021/10/20 12:37:26;;;;;;;8.35;6.30;;;;;;;;;;4939394;28;20031;-66
2021/10/20 12:39:51;;;;;;;12.35;8.48;;;;;;;;;;4945911;29;20035;-66
2021/10/20 12:42:19;;;;;;;11.27;6.68;;;;;;;;;;4942685;28;20095;-67
2021/10/20 12:44:45;;;;;;;8.80;6.45;;;;;;;;;;4944793;28;20023;-66
2021/10/20 12:47:11;;;;;;;10.93;6.80;;;;;;;;;;4936151;28;20387;-66
2021/10/20 12:49:36;;;;;;;20.25;9.70;;;;;;;;;;4947894;29;21148;-67
2021/10/20 12:52:04;;;;;;;18.13;9.57;;;;;;;;;;4943997;28;20050;-67
2021/10/20 12:54:30;;;;;;;17.08;9.60;;;;;;;;;;4944640;28;20467;-68
2021/10/20 12:56:55;;;;;;;11.30;8.13;;;;;;;;;;4940275;28;20043;-68
2021/10/20 12:59:20;;;;;;;10.50;7.82;;;;;;;;;;4937546;29;20047;-69
2021/10/20 13:01:45;;;;;;;13.10;8.60;;;;;;;;;;4947728;28;20412;-69
2021/10/20 13:04:11;;;;;;;14.13;8.75;;;;;;;;;;4947011;28;20582;-69
2021/10/20 13:06:36;;;;;;;13.48;8.95;;;;;;;;;;4942357;28;20031;-69
2021/10/20 13:09:03;;;;;;;14.73;8.82;;;;;;;;;;4944177;28;20036;-69
2021/10/20 13:11:28;;;;;;;15.85;9.48;;;;;;;;;;4952400;28;20039;-69
2021/10/20 13:13:53;;;;;;;15.43;10.20;;;;;;;;;;4940680;29;20058;-69
2021/10/20 13:16:18;;;;;;;17.20;10.25;;;;;;;;;;4940906;28;20035;-68
2021/10/20 13:18:44;;;;;;;13.05;9.68;;;;;;;;;;4947018;28;20489;-68
2021/10/20 13:21:09;;;;;;;15.38;9.90;;;;;;;;;;4947453;28;20115;-68
2021/10/20 13:23:36;;;;;;;16.55;9.70;;;;;;;;;;4947245;28;20378;-68
2021/10/20 13:26:02;;;;;;;14.68;9.68;;;;;;;;;;4942383;28;20469;-68
2021/10/20 13:28:28;;;;;;;14.07;9.77;;;;;;;;;;4944295;28;20035;-68
2021/10/20 13:30:53;;;;;;;11.90;9.40;;;;;;;;;;4944763;28;20371;-68
2021/10/20 13:33:18;;;;;;;13.13;8.50;;;;;;;;;;4947931;28;20385;-68
2021/10/20 13:35:44;;;;;;;12.88;8.65;;;;;;;;;;4946685;28;20127;-68
2021/10/20 13:38:10;;;;;;;11.38;7.55;;;;;;;;;;4935148;28;20032;-68
2021/10/20 13:40:36;;;;;;;14.05;8.93;;;;;;;;;;4938107;28;20131;-68
2021/10/20 13:43:01;;;;;;;11.25;8.73;;;;;;;;;;4935828;28;20035;-68
2021/10/20 13:45:27;;;;;;;12.60;8.02;;;;;;;;;;4939774;28;20039;-68
2021/10/20 13:47:52;;;;;;;11.10;8.10;;;;;;;;;;4943617;28;20027;-68
2021/10/20 13:50:17;;;;;;;11.40;9.05;;;;;;;;;;4945368;28;20768;-68
2021/10/20 13:52:43;;;;;;;14.85;8.27;;;;;;;;;;4947606;28;20023;-68
2021/10/20 13:55:09;;;;;;;14.15;8.15;;;;;;;;;;4937322;28;20601;-68
2021/10/20 13:57:34;;;;;;;12.75;8.20;;;;;;;;;;4939916;28;20159;-68
2021/10/20 14:00:01;;;;;;;12.43;8.27;;;;;;;;;;4940564;28;20031;-68
2021/10/20 14:02:26;;;;;;;15.65;8.50;;;;;;;;;;4942566;28;20059;-68
2021/10/20 14:04:54;;;;;;;13.90;8.13;;;;;;;;;;4938064;28;20020;-68
2021/10/20 14:07:19;;;;;;;12.00;7.38;;;;;;;;;;4945064;28;20547;-68
2021/10/20 14:09:44;;;;;;;10.85;7.78;;;;;;;;;;4947957;28;20030;-68
2021/10/20 14:12:10;;;;;;;13.80;8.88;;;;;;;;;;4940990;28;20557;-68
2021/10/20 14:14:35;;;;;;;12.18;8.70;;;;;;;;;;4942169;28;20098;-68
2021/10/20 14:17:00;;;;;;;11.85;8.45;;;;;;;;;;4934776;28;20036;-68
2021/10/20 14:19:26;;;;;;;9.13;6.70;;;;;;;;;;4945885;28;20417;-68
2021/10/20 14:21:51;;;;;;;12.35;9.20;;;;;;;;;;4939830;28;20052;-68
2021/10/20 14:24:16;;;;;;;13.98;8.70;;;;;;;;;;4946539;28;20019;-68
2021/10/20 14:26:41;;;;;;;11.43;8.63;;;;;;;;;;4937794;28;20047;-68
2021/10/20 14:29:07;;;;;;;13.68;9.50;;;;;;;;;;4943604;28;20426;-69
2021/10/20 14:31:37;;;;;;;13.27;8.77;;;;;;;;;;4945789;28;20117;-68